createdAt,value
2023-07-26T00:01:04.502Z,63.50
2023-07-26T00:03:56.323Z,63.80
2023-07-26T00:06:47.476Z,63.80
2023-07-26T00:09:36.933Z,63.90
2023-07-26T00:12:27.950Z,63.70
2023-07-26T00:15:17.429Z,63.70
2023-07-26T00:18:06.919Z,63.70
2023-07-26T00:20:56.315Z,63.70
2023-07-26T00:23:47.000Z,63.60
2023-07-26T00:26:37.588Z,63.60
2023-07-26T00:29:26.973Z,63.70
2023-07-26T00:32:16.361Z,63.50
2023-07-26T00:35:06.487Z,63.50
2023-07-26T00:37:55.811Z,63.60
2023-07-26T00:40:46.567Z,63.50
2023-07-26T00:43:35.939Z,63.60
2023-07-26T00:46:25.757Z,63.50
2023-07-26T00:49:15.217Z,63.50
2023-07-26T00:52:05.326Z,63.60
2023-07-26T00:54:56.731Z,63.50
2023-07-26T00:57:49.292Z,63.50
2023-07-26T01:00:42.919Z,63.80
2023-07-26T01:03:32.299Z,63.60
2023-07-26T01:06:31.599Z,63.60
2023-07-26T01:09:32.462Z,63.90
2023-07-26T01:12:25.731Z,64.60
2023-07-26T01:15:17.811Z,64.40
2023-07-26T01:18:12.508Z,64.60
2023-07-26T01:21:01.909Z,65.00
2023-07-26T01:23:52.561Z,64.50
2023-07-26T01:26:41.893Z,64.80
2023-07-26T01:29:31.254Z,64.50
2023-07-26T01:32:23.301Z,64.60
2023-07-26T01:35:13.168Z,64.80
2023-07-26T01:38:02.968Z,64.90
2023-07-26T01:40:54.300Z,64.80
2023-07-26T01:43:43.852Z,65.00
2023-07-26T01:46:33.168Z,64.80
2023-07-26T01:49:23.314Z,65.10
2023-07-26T01:52:12.789Z,64.70
2023-07-26T01:55:02.187Z,65.10
2023-07-26T01:57:52.928Z,65.00
2023-07-26T02:00:42.428Z,65.10
2023-07-26T02:03:32.052Z,65.10
2023-07-26T02:06:21.395Z,65.30
2023-07-26T02:09:10.777Z,65.60
2023-07-26T02:12:00.134Z,65.90
2023-07-26T02:14:51.022Z,66.10
2023-07-26T02:17:40.453Z,66.20
2023-07-26T02:20:29.908Z,66.30
2023-07-26T02:23:19.390Z,66.40
2023-07-26T02:26:08.766Z,66.60
2023-07-26T02:28:58.213Z,66.60
2023-07-26T02:31:49.277Z,66.60
2023-07-26T02:34:38.988Z,67.00
2023-07-26T02:37:28.346Z,67.00
2023-07-26T02:40:17.822Z,66.90
2023-07-26T02:43:07.288Z,66.80
2023-07-26T02:45:56.749Z,66.90
2023-07-26T02:48:47.479Z,66.90
2023-07-26T02:51:36.812Z,67.00
2023-07-26T02:54:26.236Z,66.90
2023-07-26T02:57:16.590Z,67.00
2023-07-26T03:00:08.013Z,67.10
2023-07-26T03:02:57.618Z,67.10
2023-07-26T03:05:48.691Z,67.10
2023-07-26T03:08:38.037Z,67.10
2023-07-26T03:11:27.388Z,67.10
2023-07-26T03:14:16.728Z,67.70
2023-07-26T03:20:01.651Z,67.40
2023-07-26T03:22:53.926Z,67.30
2023-07-26T03:25:44.567Z,67.40
2023-07-26T03:28:34.247Z,67.40
2023-07-26T03:31:23.618Z,67.40
2023-07-26T03:34:12.968Z,67.20
2023-07-26T03:37:03.874Z,67.20
2023-07-26T03:39:54.627Z,67.10
2023-07-26T03:42:43.930Z,67.10
2023-07-26T03:45:33.337Z,67.10
2023-07-26T03:48:22.660Z,67.20
2023-07-26T03:51:13.164Z,67.20
2023-07-26T03:54:02.527Z,67.30
2023-07-26T03:56:54.580Z,67.20
2023-07-26T03:59:43.944Z,67.40
2023-07-26T04:02:36.950Z,67.40
2023-07-26T04:05:27.572Z,67.40
2023-07-26T04:08:16.934Z,67.50
2023-07-26T04:11:06.306Z,67.50
2023-07-26T04:13:57.005Z,67.60
2023-07-26T04:16:46.373Z,67.80
2023-07-26T04:19:35.951Z,67.80
2023-07-26T04:22:25.315Z,68.10
2023-07-26T04:25:14.761Z,68.10
2023-07-26T04:28:04.255Z,68.10
2023-07-26T04:30:55.336Z,68.00
2023-07-26T04:33:44.917Z,68.30
2023-07-26T04:36:34.570Z,68.10
2023-07-26T04:39:24.138Z,68.10
2023-07-26T04:42:13.680Z,68.20
2023-07-26T04:45:03.090Z,68.30
2023-07-26T04:47:53.823Z,68.50
2023-07-26T04:50:43.483Z,68.90
2023-07-26T04:53:32.839Z,68.90
2023-07-26T04:56:26.672Z,69.10
2023-07-26T04:59:16.849Z,69.20
2023-07-26T05:02:07.109Z,69.40
2023-07-26T05:04:58.009Z,69.90
2023-07-26T05:07:47.318Z,70.50
2023-07-26T05:10:37.421Z,70.80
2023-07-26T05:13:26.984Z,70.80
2023-07-26T05:16:16.391Z,70.60
2023-07-26T05:19:05.815Z,70.40
2023-07-26T05:21:56.540Z,70.20
2023-07-26T05:24:45.961Z,69.90
2023-07-26T05:27:35.334Z,69.40
2023-07-26T05:30:24.660Z,69.00
2023-07-26T05:33:14.070Z,69.40
2023-07-26T05:36:03.601Z,68.50
2023-07-26T05:38:54.336Z,68.30
2023-07-26T05:41:43.667Z,68.30
2023-07-26T05:44:33.042Z,68.10
2023-07-26T05:47:22.377Z,67.70
2023-07-26T05:50:12.398Z,67.20
2023-07-26T05:53:01.700Z,66.90
2023-07-26T05:55:52.428Z,66.60
2023-07-26T05:58:41.812Z,66.20
2023-07-26T06:01:31.423Z,66.40
2023-07-26T06:04:21.016Z,67.70
2023-07-26T06:07:10.354Z,69.60
2023-07-26T06:09:59.712Z,69.50
2023-07-26T06:12:50.352Z,68.70
2023-07-26T06:15:39.804Z,68.10
2023-07-26T06:18:29.160Z,67.70
2023-07-26T06:21:20.121Z,67.30
2023-07-26T06:24:10.073Z,67.00
2023-07-26T06:26:59.382Z,66.80
2023-07-26T06:29:50.310Z,66.80
2023-07-26T06:32:39.735Z,66.80
2023-07-26T06:35:29.165Z,66.60
2023-07-26T06:38:18.536Z,66.40
2023-07-26T06:41:08.165Z,66.30
2023-07-26T06:43:57.589Z,66.70
2023-07-26T06:46:48.276Z,67.10
2023-07-26T06:49:37.996Z,67.00
2023-07-26T06:52:31.358Z,68.50
2023-07-26T06:55:20.677Z,67.70
2023-07-26T06:58:10.141Z,67.20
2023-07-26T07:01:01.168Z,67.10
2023-07-26T07:04:07.261Z,66.30
2023-07-26T07:07:01.133Z,65.60
2023-07-26T07:09:50.481Z,65.00
2023-07-26T07:12:39.831Z,63.60
2023-07-26T07:15:29.237Z,62.00
2023-07-26T07:18:18.792Z,61.20
2023-07-26T07:21:09.572Z,60.90
2023-07-26T07:23:58.908Z,60.50
2023-07-26T07:26:48.266Z,61.30
2023-07-26T07:29:39.332Z,61.00
2023-07-26T07:32:30.588Z,60.70
2023-07-26T07:35:20.135Z,60.10
2023-07-26T07:38:10.807Z,59.00
2023-07-26T07:41:00.181Z,58.60
2023-07-26T07:43:49.516Z,58.90
2023-07-26T07:46:41.680Z,58.30
2023-07-26T07:49:38.760Z,58.10
2023-07-26T07:52:28.080Z,58.60
2023-07-26T07:55:18.967Z,59.30
2023-07-26T07:58:08.655Z,58.00
2023-07-26T08:01:01.463Z,57.70
2023-07-26T08:03:50.986Z,56.80
2023-07-26T08:06:40.516Z,57.10
2023-07-26T08:09:29.857Z,57.40
2023-07-26T08:12:20.505Z,57.10
2023-07-26T08:15:10.541Z,57.10
2023-07-26T08:17:59.869Z,57.70
2023-07-26T08:20:49.293Z,57.90
2023-07-26T08:23:39.148Z,59.40
2023-07-26T08:26:28.987Z,61.00
2023-07-26T08:29:19.737Z,61.10
2023-07-26T08:32:09.796Z,60.00
2023-07-26T08:34:59.365Z,58.00
2023-07-26T08:37:48.656Z,55.50
2023-07-26T08:40:38.095Z,53.60
2023-07-26T08:43:33.086Z,51.50
2023-07-26T08:46:25.030Z,51.80
2023-07-26T08:49:15.064Z,52.80
2023-07-26T08:52:05.476Z,52.90
2023-07-26T08:54:55.411Z,51.80
2023-07-26T08:57:45.682Z,51.00
2023-07-26T09:00:35.101Z,51.50
2023-07-26T09:03:25.956Z,51.70
2023-07-26T09:06:15.388Z,51.70
2023-07-26T09:09:06.196Z,51.40
2023-07-26T09:11:56.884Z,49.60
2023-07-26T09:14:46.268Z,47.60
2023-07-26T09:17:44.927Z,46.70
2023-07-26T09:20:36.978Z,45.90
2023-07-26T09:23:26.285Z,47.30
2023-07-26T09:26:15.661Z,47.70
2023-07-26T09:29:09.780Z,47.20
2023-07-26T09:31:59.151Z,47.60
2023-07-26T09:34:48.557Z,47.70
2023-07-26T09:37:39.902Z,47.00
2023-07-26T09:40:38.402Z,46.20
2023-07-26T09:43:33.085Z,44.60
2023-07-26T09:46:23.202Z,44.50
2023-07-26T09:52:15.211Z,43.00
2023-07-26T09:55:09.497Z,41.60
2023-07-26T09:58:01.121Z,40.10
2023-07-26T10:00:52.314Z,39.30
2023-07-26T10:03:47.957Z,39.00
2023-07-26T10:06:38.503Z,39.00
2023-07-26T10:09:28.276Z,38.90
2023-07-26T10:12:24.504Z,38.40
2023-07-26T10:15:15.175Z,38.30
2023-07-26T10:18:04.886Z,39.50
2023-07-26T10:20:55.649Z,39.80
2023-07-26T10:23:47.617Z,40.20
2023-07-26T10:26:39.390Z,40.70
2023-07-26T10:29:30.176Z,40.90
2023-07-26T10:32:19.674Z,40.40
2023-07-26T10:35:11.428Z,39.60
2023-07-26T10:38:04.594Z,38.70
2023-07-26T10:40:53.974Z,38.10
2023-07-26T10:43:43.376Z,37.50
2023-07-26T10:46:50.103Z,37.30
2023-07-26T10:49:39.649Z,37.40
2023-07-26T10:52:38.152Z,38.30
2023-07-26T10:55:28.428Z,38.30
2023-07-26T10:58:17.855Z,39.70
2023-07-26T11:01:07.741Z,40.00
2023-07-26T11:03:59.779Z,39.30
2023-07-26T11:06:56.683Z,38.10
2023-07-26T11:09:46.082Z,38.00
2023-07-26T11:12:36.095Z,38.90
2023-07-26T11:16:13.063Z,39.00
2023-07-26T11:18:43.518Z,37.60
2023-07-26T11:21:36.926Z,37.90
2023-07-26T11:24:30.059Z,36.90
2023-07-26T11:27:19.549Z,36.10
2023-07-26T11:30:16.257Z,35.80
2023-07-26T11:33:06.918Z,35.60
2023-07-26T11:35:56.663Z,35.40
2023-07-26T11:38:47.815Z,35.10
2023-07-26T11:41:37.230Z,35.00
2023-07-26T11:44:26.773Z,35.50
2023-07-26T11:47:16.403Z,35.00
2023-07-26T11:50:07.217Z,35.00
2023-07-26T11:53:06.935Z,35.00
2023-07-26T11:55:57.815Z,35.00
2023-07-26T11:58:47.151Z,35.50
2023-07-26T12:01:38.119Z,35.90
2023-07-26T12:04:27.882Z,36.40
2023-07-26T12:07:17.812Z,36.60
2023-07-26T12:10:09.988Z,37.10
2023-07-26T12:13:05.822Z,37.50
2023-07-26T12:15:57.209Z,37.90
2023-07-26T12:18:59.528Z,38.00
2023-07-26T12:21:50.133Z,38.00
2023-07-26T12:24:53.222Z,38.00
2023-07-26T12:27:42.631Z,38.10
2023-07-26T12:30:33.324Z,38.20
2023-07-26T12:33:23.663Z,38.40
2023-07-26T12:36:13.000Z,38.60
2023-07-26T12:39:02.375Z,38.60
2023-07-26T12:41:51.727Z,38.70
2023-07-26T12:44:41.162Z,38.80
2023-07-26T12:47:32.871Z,39.00
2023-07-26T12:50:23.025Z,39.00
2023-07-26T12:53:12.494Z,39.10
2023-07-26T12:56:03.040Z,39.30
2023-07-26T12:59:06.127Z,39.50
2023-07-26T13:01:57.007Z,39.60
2023-07-26T13:04:47.745Z,39.90
2023-07-26T13:07:37.125Z,40.00
2023-07-26T13:10:27.800Z,40.10
2023-07-26T13:13:17.281Z,40.00
2023-07-26T13:16:07.243Z,39.90
2023-07-26T13:18:56.601Z,39.90
2023-07-26T13:21:49.325Z,39.70
2023-07-26T13:24:38.909Z,39.80
2023-07-26T13:27:28.449Z,40.00
2023-07-26T13:30:18.142Z,40.40
2023-07-26T13:33:07.547Z,41.00
2023-07-26T13:35:57.497Z,41.60
2023-07-26T13:38:49.056Z,41.80
2023-07-26T13:41:38.421Z,41.80
2023-07-26T13:44:28.863Z,41.80
2023-07-26T13:47:18.774Z,41.80
2023-07-26T13:50:09.516Z,41.30
2023-07-26T13:52:58.863Z,40.90
2023-07-26T13:55:49.874Z,40.70
2023-07-26T13:58:39.309Z,40.50
2023-07-26T14:01:29.224Z,40.30
2023-07-26T14:04:18.687Z,40.20
2023-07-26T14:07:08.100Z,40.10
2023-07-26T14:09:57.501Z,40.10
2023-07-26T14:12:48.306Z,40.00
2023-07-26T14:15:37.816Z,40.00
2023-07-26T14:18:27.265Z,39.90
2023-07-26T14:21:16.622Z,39.80
2023-07-26T14:24:07.054Z,39.90
2023-07-26T14:26:56.453Z,39.90
2023-07-26T14:29:47.100Z,39.90
2023-07-26T14:32:36.479Z,39.80
2023-07-26T14:35:26.768Z,39.90
2023-07-26T14:38:16.566Z,39.90
2023-07-26T14:41:05.895Z,39.80
2023-07-26T14:43:55.247Z,39.60
2023-07-26T14:46:46.048Z,39.60
2023-07-26T14:49:37.650Z,39.50
2023-07-26T14:52:28.659Z,39.70
2023-07-26T14:55:18.130Z,40.60
2023-07-26T14:58:07.448Z,40.30
2023-07-26T15:00:56.823Z,40.40
2023-07-26T15:03:47.762Z,40.40
2023-07-26T15:06:38.062Z,40.40
2023-07-26T15:09:27.429Z,40.50
2023-07-26T15:12:16.779Z,40.50
2023-07-26T15:15:07.379Z,40.60
2023-07-26T15:17:56.804Z,40.60
2023-07-26T15:20:47.664Z,40.70
2023-07-26T15:23:37.143Z,40.60
2023-07-26T15:26:26.402Z,40.40
2023-07-26T15:29:15.757Z,40.20
2023-07-26T15:32:09.504Z,40.20
2023-07-26T15:34:59.359Z,40.20
2023-07-26T15:37:50.101Z,40.40
2023-07-26T15:43:47.596Z,40.80
2023-07-26T15:46:42.216Z,40.90
2023-07-26T15:49:36.285Z,41.00
2023-07-26T15:52:26.619Z,41.00
2023-07-26T15:55:17.361Z,40.80
2023-07-26T15:58:06.794Z,40.80
2023-07-26T16:00:56.281Z,40.60
2023-07-26T16:03:53.115Z,41.20
2023-07-26T16:09:35.610Z,40.50
2023-07-26T16:12:27.345Z,40.50
2023-07-26T16:23:55.011Z,40.70
2023-07-26T16:26:44.314Z,40.80
2023-07-26T16:29:35.024Z,40.80
2023-07-26T16:32:24.405Z,40.80
2023-07-26T16:35:13.797Z,40.70
2023-07-26T16:38:03.702Z,40.80
2023-07-26T16:40:53.539Z,40.90
2023-07-26T16:43:43.238Z,41.10
2023-07-26T16:46:57.222Z,41.10
2023-07-26T16:49:43.369Z,41.20
2023-07-26T16:52:32.807Z,41.40
2023-07-26T16:55:22.299Z,41.40
2023-07-26T16:58:11.663Z,41.40
2023-07-26T17:01:01.104Z,41.30
2023-07-26T17:03:51.962Z,41.30
2023-07-26T17:06:41.549Z,41.30
2023-07-26T17:09:30.945Z,41.30
2023-07-26T17:12:20.290Z,41.30
2023-07-26T17:15:10.853Z,41.50
2023-07-26T17:18:00.282Z,41.50
2023-07-26T17:20:51.029Z,41.50
2023-07-26T17:23:40.996Z,41.60
2023-07-26T17:26:31.995Z,41.60
2023-07-26T17:29:21.719Z,41.70
2023-07-26T17:32:11.353Z,41.60
2023-07-26T17:35:00.854Z,41.50
2023-07-26T17:37:51.531Z,41.40
2023-07-26T17:40:42.044Z,41.00
2023-07-26T17:43:31.354Z,40.90
2023-07-26T17:46:20.716Z,40.70
2023-07-26T17:49:10.185Z,40.70
2023-07-26T17:52:00.379Z,40.60
2023-07-26T17:54:51.313Z,40.50
2023-07-26T17:57:40.599Z,40.50
2023-07-26T18:00:30.044Z,40.50
2023-07-26T18:03:19.486Z,40.60
2023-07-26T18:06:08.847Z,40.60
2023-07-26T18:08:58.203Z,40.60
2023-07-26T18:11:48.887Z,40.60
2023-07-26T18:14:38.254Z,40.60
2023-07-26T18:17:27.592Z,40.70
2023-07-26T18:20:17.303Z,40.70
2023-07-26T18:23:06.733Z,40.80
2023-07-26T18:25:56.090Z,40.80
2023-07-26T18:28:46.879Z,40.80
2023-07-26T18:31:40.326Z,40.80
2023-07-26T18:34:32.116Z,40.90
2023-07-26T18:37:21.535Z,40.90
2023-07-26T18:40:11.818Z,40.90
2023-07-26T18:43:01.784Z,40.90
2023-07-26T18:45:53.364Z,40.90
2023-07-26T18:48:42.901Z,41.00
2023-07-26T18:51:32.299Z,41.10
2023-07-26T18:54:21.769Z,41.20
2023-07-26T18:57:12.720Z,41.30
2023-07-26T19:00:02.258Z,41.30
2023-07-26T19:02:53.097Z,41.30
2023-07-26T19:05:42.756Z,41.50
2023-07-26T19:08:32.233Z,41.60
2023-07-26T19:11:21.686Z,41.60
2023-07-26T19:14:11.083Z,41.70
2023-07-26T19:17:01.352Z,41.70
2023-07-26T19:19:52.064Z,41.90
2023-07-26T19:22:41.459Z,41.90
2023-07-26T19:25:33.276Z,42.10
2023-07-26T19:28:22.681Z,42.20
2023-07-26T19:31:14.100Z,42.40
2023-07-26T19:34:04.582Z,42.30
2023-07-26T19:36:55.289Z,42.40
2023-07-26T19:39:44.614Z,42.50
2023-07-26T19:42:33.966Z,42.60
2023-07-26T19:45:24.966Z,42.80
2023-07-26T19:48:14.437Z,42.80
2023-07-26T19:51:03.824Z,42.90
2023-07-26T19:53:54.563Z,43.00
2023-07-26T19:56:43.971Z,43.00
2023-07-26T19:59:33.878Z,42.90
2023-07-26T20:02:23.359Z,43.10
2023-07-26T20:05:12.948Z,43.10
2023-07-26T20:08:02.654Z,43.20
2023-07-26T20:10:53.835Z,43.20
2023-07-26T20:13:43.980Z,43.30
2023-07-26T20:16:33.601Z,43.40
2023-07-26T20:19:23.268Z,43.40
2023-07-26T20:22:12.591Z,43.30
2023-07-26T20:25:02.080Z,43.30
2023-07-26T20:27:52.880Z,43.50
2023-07-26T20:30:42.326Z,43.50
2023-07-26T20:33:31.669Z,43.40
2023-07-26T20:36:21.473Z,43.40
2023-07-26T20:39:10.886Z,43.50
2023-07-26T20:42:00.357Z,43.50
2023-07-26T20:44:51.147Z,43.50
2023-07-26T20:47:40.514Z,43.70
2023-07-26T20:50:29.921Z,43.70
2023-07-26T20:53:19.289Z,44.00
2023-07-26T20:56:08.635Z,44.10
2023-07-26T20:58:58.003Z,44.10
2023-07-26T21:01:50.414Z,44.20
2023-07-26T21:04:40.074Z,44.30
2023-07-26T21:07:29.415Z,44.30
2023-07-26T21:10:18.977Z,44.10
2023-07-26T21:13:08.364Z,44.10
2023-07-26T21:15:59.372Z,44.20
2023-07-26T21:18:50.110Z,44.10
2023-07-26T21:21:39.560Z,44.20
2023-07-26T21:24:28.972Z,44.10
2023-07-26T21:27:18.431Z,44.10
2023-07-26T21:30:09.737Z,44.10
2023-07-26T21:32:59.190Z,44.30
2023-07-26T21:35:54.391Z,44.30
2023-07-26T21:38:44.201Z,44.30
2023-07-26T21:41:33.522Z,44.40
2023-07-26T21:44:24.101Z,44.50
2023-07-26T21:47:13.432Z,44.60
2023-07-26T21:50:02.771Z,44.80
2023-07-26T21:52:53.467Z,44.90
2023-07-26T21:55:42.888Z,45.00
2023-07-26T21:58:32.264Z,45.20
2023-07-26T22:01:21.849Z,45.10
2023-07-26T22:04:11.396Z,45.30
2023-07-26T22:07:00.753Z,45.50
2023-07-26T22:09:51.709Z,45.50
2023-07-26T22:12:41.077Z,45.50
2023-07-26T22:15:30.395Z,45.50
2023-07-26T22:18:19.756Z,45.60
2023-07-26T22:21:16.534Z,45.70
2023-07-26T22:24:07.822Z,45.80
2023-07-26T22:27:00.308Z,45.80
2023-07-26T22:29:49.694Z,45.80
2023-07-26T22:32:39.189Z,45.80
2023-07-26T22:35:28.630Z,45.90
2023-07-26T22:38:18.061Z,45.90
2023-07-26T22:41:08.164Z,46.00
2023-07-26T22:43:58.879Z,46.00
2023-07-26T22:46:48.248Z,46.10
2023-07-26T22:49:37.651Z,46.10
2023-07-26T22:52:27.202Z,46.70
2023-07-26T22:55:18.027Z,46.10
2023-07-26T22:58:07.634Z,46.10
2023-07-26T23:01:06.114Z,46.10
2023-07-26T23:03:55.540Z,46.30
2023-07-26T23:06:44.999Z,46.10
2023-07-26T23:09:34.365Z,46.20
2023-07-26T23:12:23.793Z,46.20
2023-07-26T23:15:13.520Z,46.30
2023-07-26T23:18:04.263Z,46.40
2023-07-26T23:20:53.900Z,46.50
2023-07-26T23:23:43.403Z,46.50
2023-07-26T23:26:32.888Z,46.50
2023-07-26T23:29:22.509Z,46.50
2023-07-26T23:32:11.929Z,46.70
2023-07-26T23:35:02.628Z,46.70
2023-07-26T23:37:51.992Z,46.80
2023-07-26T23:40:41.710Z,46.80
2023-07-26T23:43:31.102Z,46.90
2023-07-26T23:46:20.442Z,47.00
2023-07-26T23:49:09.784Z,47.10
2023-07-26T23:52:00.479Z,47.10
2023-07-26T23:54:49.874Z,47.30
2023-07-26T23:57:39.236Z,47.20
